createdAt,value
2023-03-02T00:00:44.800Z,4.85
2023-03-02T00:01:56.116Z,4.68
2023-03-02T00:02:58.422Z,4.37
2023-03-02T00:04:04.149Z,4.64
2023-03-02T00:05:08.681Z,5.06
2023-03-02T00:06:11.522Z,4.89
2023-03-02T00:07:17.730Z,5.35
2023-03-02T00:08:20.089Z,5.18
2023-03-02T00:09:23.051Z,4.37
2023-03-02T00:10:25.457Z,4.64
2023-03-02T00:11:30.021Z,5.17
2023-03-02T00:12:32.993Z,6.78
2023-03-02T00:13:37.670Z,5.63
2023-03-02T00:14:40.104Z,5.76
2023-03-02T00:15:42.177Z,5.80
2023-03-02T00:16:44.569Z,6.97
2023-03-02T00:17:46.812Z,9.32
2023-03-02T00:18:49.536Z,7.59
2023-03-02T00:19:52.606Z,6.36
2023-03-02T00:20:55.101Z,6.15
2023-03-02T00:21:57.088Z,5.85
2023-03-02T00:22:59.448Z,6.42
2023-03-02T00:24:01.474Z,5.55
2023-03-02T00:25:04.554Z,5.05
2023-03-02T00:26:06.790Z,6.78
2023-03-02T00:27:08.677Z,7.35
2023-03-02T00:28:10.778Z,5.35
2023-03-02T00:29:13.475Z,5.67
2023-03-02T00:30:16.683Z,8.66
2023-03-02T00:31:19.677Z,6.43
2023-03-02T00:32:22.294Z,5.91
2023-03-02T00:33:25.114Z,4.91
2023-03-02T00:34:27.043Z,5.09
2023-03-02T00:35:28.968Z,4.70
2023-03-02T00:36:32.138Z,5.95
2023-03-02T00:37:35.879Z,10.48
2023-03-02T00:38:38.199Z,9.81
2023-03-02T00:39:40.110Z,7.10
2023-03-02T00:40:47.084Z,9.20
2023-03-02T00:41:49.313Z,9.25
2023-03-02T00:42:51.272Z,7.15
2023-03-02T00:43:53.755Z,6.66
2023-03-02T00:44:55.642Z,6.44
2023-03-02T00:45:57.531Z,7.10
2023-03-02T00:47:00.158Z,7.67
2023-03-02T00:48:02.192Z,7.77
2023-03-02T00:49:04.173Z,7.23
2023-03-02T00:50:08.579Z,6.69
2023-03-02T00:51:12.379Z,5.84
2023-03-02T00:52:15.730Z,5.56
2023-03-02T00:53:18.294Z,5.44
2023-03-02T00:54:20.291Z,6.50
2023-03-02T00:55:22.552Z,6.50
2023-03-02T00:56:24.646Z,5.81
2023-03-02T00:57:26.724Z,4.69
2023-03-02T00:58:30.348Z,4.33
2023-03-02T00:59:33.126Z,4.36
2023-03-02T01:00:36.842Z,4.00
2023-03-02T01:01:38.926Z,4.13
2023-03-02T01:02:40.929Z,4.87
2023-03-02T01:03:44.109Z,3.79
2023-03-02T01:04:46.632Z,5.14
2023-03-02T01:05:49.103Z,5.62
2023-03-02T01:06:51.176Z,5.90
2023-03-02T01:07:53.281Z,8.35
2023-03-02T01:08:55.286Z,7.48
2023-03-02T01:09:57.263Z,8.20
2023-03-02T01:10:59.590Z,6.91
2023-03-02T01:12:01.862Z,5.73
2023-03-02T01:13:04.550Z,5.42
2023-03-02T01:14:06.566Z,8.94
2023-03-02T01:15:09.677Z,9.08
2023-03-02T01:16:12.368Z,8.99
2023-03-02T01:17:15.019Z,7.11
2023-03-02T01:18:17.098Z,6.03
2023-03-02T01:19:19.012Z,6.28
2023-03-02T01:20:21.394Z,6.37
2023-03-02T01:21:23.294Z,6.45
2023-03-02T01:22:25.829Z,8.62
2023-03-02T01:23:28.218Z,7.19
2023-03-02T01:24:30.947Z,6.39
2023-03-02T01:25:34.428Z,5.21
2023-03-02T01:26:37.015Z,6.53
2023-03-02T01:27:39.877Z,6.20
2023-03-02T01:28:41.783Z,7.24
2023-03-02T01:29:44.066Z,7.68
2023-03-02T01:30:46.974Z,5.72
2023-03-02T01:31:49.160Z,6.29
2023-03-02T01:32:52.210Z,6.75
2023-03-02T01:33:54.593Z,6.60
2023-03-02T01:34:56.823Z,5.92
2023-03-02T01:35:58.820Z,5.29
2023-03-02T01:37:00.909Z,4.59
2023-03-02T01:38:03.271Z,4.46
2023-03-02T01:39:05.342Z,4.27
2023-03-02T01:40:09.779Z,4.96
2023-03-02T01:41:12.061Z,5.84
2023-03-02T01:42:14.184Z,5.55
2023-03-02T01:43:16.752Z,4.71
2023-03-02T01:44:46.071Z,4.47
2023-03-02T01:45:57.938Z,4.51
2023-03-02T01:47:01.425Z,4.61
2023-03-02T01:48:06.027Z,4.88
2023-03-02T01:49:11.702Z,4.25
2023-03-02T01:50:20.938Z,4.77
2023-03-02T01:51:26.049Z,4.65
2023-03-02T01:52:30.838Z,4.81
2023-03-02T01:53:36.147Z,5.18
2023-03-02T01:54:42.370Z,4.93
2023-03-02T01:55:45.461Z,5.07
2023-03-02T01:56:52.268Z,5.56
2023-03-02T01:57:56.301Z,6.31
2023-03-02T01:59:01.922Z,6.44
2023-03-02T02:00:07.875Z,6.21
2023-03-02T02:01:10.397Z,6.50
2023-03-02T02:02:13.041Z,6.19
2023-03-02T02:03:21.720Z,6.11
2023-03-02T02:04:26.404Z,6.39
2023-03-02T02:05:28.833Z,6.13
2023-03-02T02:06:34.934Z,6.15
2023-03-02T02:07:37.913Z,6.98
2023-03-02T02:08:41.894Z,5.72
2023-03-02T02:09:50.471Z,5.91
2023-03-02T02:10:53.510Z,6.71
2023-03-02T02:11:56.137Z,6.79
2023-03-02T02:12:58.913Z,6.11
2023-03-02T02:14:02.718Z,6.13
2023-03-02T02:15:06.657Z,6.99
2023-03-02T02:16:10.577Z,6.21
2023-03-02T02:17:15.932Z,6.96
2023-03-02T02:18:18.627Z,6.81
2023-03-02T02:19:31.088Z,6.95
2023-03-02T02:20:37.066Z,6.42
2023-03-02T02:21:39.469Z,6.53
2023-03-02T02:22:45.753Z,6.27
2023-03-02T02:24:06.513Z,6.18
2023-03-02T02:25:19.281Z,6.83
2023-03-02T02:26:40.786Z,6.87
2023-03-02T02:27:43.980Z,6.80
2023-03-02T02:28:59.049Z,6.69
2023-03-02T02:30:03.917Z,6.85
2023-03-02T02:31:23.121Z,6.86
2023-03-02T02:32:29.054Z,6.63
2023-03-02T02:33:32.653Z,6.34
2023-03-02T02:34:44.065Z,7.33
2023-03-02T02:36:53.201Z,6.43
2023-03-02T02:37:58.911Z,6.81
2023-03-02T02:39:05.131Z,6.43
2023-03-02T02:40:14.284Z,7.33
2023-03-02T02:41:25.999Z,6.71
2023-03-02T02:42:31.701Z,6.26
2023-03-02T02:43:34.017Z,7.79
2023-03-02T02:44:36.313Z,6.65
2023-03-02T02:45:39.255Z,5.79
2023-03-02T02:46:42.488Z,5.87
2023-03-02T02:47:44.864Z,6.79
2023-03-02T02:48:46.756Z,6.23
2023-03-02T02:49:52.627Z,5.65
2023-03-02T02:50:54.801Z,5.59
2023-03-02T02:51:58.424Z,4.91
2023-03-02T02:53:05.019Z,5.28
2023-03-02T02:54:11.183Z,5.82
2023-03-02T02:55:16.883Z,5.38
2023-03-02T02:56:19.681Z,5.04
2023-03-02T02:57:24.370Z,5.50
2023-03-02T02:58:30.044Z,5.14
2023-03-02T02:59:38.787Z,5.03
2023-03-02T03:00:42.722Z,5.05
2023-03-02T03:01:47.228Z,5.08
2023-03-02T03:02:53.221Z,4.75
2023-03-02T03:05:28.426Z,4.57
2023-03-02T03:06:34.290Z,5.34
2023-03-02T03:07:36.405Z,5.08
2023-03-02T03:08:42.071Z,4.83
2023-03-02T03:09:48.575Z,4.65
2023-03-02T03:10:50.999Z,5.28
2023-03-02T03:11:56.726Z,5.02
2023-03-02T03:12:58.924Z,5.49
2023-03-02T03:14:06.307Z,6.02
2023-03-02T03:15:10.618Z,6.38
2023-03-02T03:16:15.188Z,4.83
2023-03-02T03:17:17.885Z,5.26
2023-03-02T03:18:22.965Z,5.39
2023-03-02T03:19:28.550Z,4.96
2023-03-02T03:20:30.997Z,5.03
2023-03-02T03:21:33.315Z,4.86
2023-03-02T03:22:38.716Z,5.15
2023-03-02T03:23:40.733Z,5.27
2023-03-02T03:24:44.570Z,4.75
2023-03-02T03:25:46.638Z,4.71
2023-03-02T03:26:49.290Z,4.21
2023-03-02T03:27:51.205Z,4.25
2023-03-02T03:28:53.608Z,3.71
2023-03-02T03:29:55.555Z,3.48
2023-03-02T03:30:59.246Z,5.02
2023-03-02T03:32:03.119Z,4.58
2023-03-02T03:33:05.473Z,3.47
2023-03-02T03:34:08.119Z,4.03
2023-03-02T03:35:10.874Z,3.73
2023-03-02T03:36:13.249Z,3.50
2023-03-02T03:37:19.242Z,3.77
2023-03-02T03:38:22.257Z,4.04
2023-03-02T03:39:24.252Z,3.92
2023-03-02T03:40:26.448Z,4.05
2023-03-02T03:41:28.361Z,3.78
2023-03-02T03:42:31.434Z,3.92
2023-03-02T03:43:33.990Z,4.15
2023-03-02T03:44:36.077Z,3.87
2023-03-02T03:45:39.216Z,4.15
2023-03-02T03:46:42.597Z,4.06
2023-03-02T03:47:44.600Z,3.74
2023-03-02T03:48:46.852Z,3.14
2023-03-02T03:49:49.161Z,3.83
2023-03-02T03:50:52.623Z,3.38
2023-03-02T03:51:55.073Z,3.61
2023-03-02T03:52:57.427Z,3.67
2023-03-02T03:53:59.301Z,3.59
2023-03-02T03:55:02.497Z,3.31
2023-03-02T03:56:05.462Z,3.86
2023-03-02T03:57:07.387Z,4.16
2023-03-02T03:58:09.943Z,3.83
2023-03-02T03:59:15.617Z,3.31
2023-03-02T04:00:19.199Z,4.06
2023-03-02T04:01:21.496Z,3.79
2023-03-02T04:02:24.938Z,3.82
2023-03-02T04:03:27.464Z,3.48
2023-03-02T04:04:32.669Z,3.35
2023-03-02T04:05:35.006Z,3.45
2023-03-02T04:06:37.413Z,3.79
2023-03-02T04:07:40.351Z,3.97
2023-03-02T04:08:42.237Z,3.54
2023-03-02T04:09:44.249Z,4.28
2023-03-02T04:10:46.653Z,3.69
2023-03-02T04:11:50.952Z,4.36
2023-03-02T04:12:53.143Z,6.11
2023-03-02T04:13:55.346Z,5.40
2023-03-02T04:14:58.320Z,4.02
2023-03-02T04:16:00.701Z,4.20
2023-03-02T04:17:03.970Z,10.17
2023-03-02T04:18:05.886Z,9.54
2023-03-02T04:19:07.993Z,10.05
2023-03-02T04:20:13.305Z,6.74
2023-03-02T04:21:15.435Z,14.21
2023-03-02T04:22:17.702Z,8.03
2023-03-02T04:23:19.592Z,7.92
2023-03-02T04:24:22.305Z,5.50
2023-03-02T04:25:27.289Z,4.22
2023-03-02T04:26:31.456Z,4.41
2023-03-02T04:27:33.697Z,3.76
2023-03-02T04:28:36.033Z,3.61
2023-03-02T04:29:38.770Z,3.96
2023-03-02T04:30:42.279Z,4.33
2023-03-02T04:31:44.360Z,3.52
2023-03-02T04:32:46.819Z,3.95
2023-03-02T04:33:49.032Z,3.71
2023-03-02T04:34:50.964Z,3.88
2023-03-02T04:35:52.904Z,3.87
2023-03-02T04:36:55.843Z,3.71
2023-03-02T04:37:57.748Z,4.37
2023-03-02T04:39:01.821Z,3.68
2023-03-02T04:40:05.006Z,3.63
2023-03-02T04:41:07.029Z,4.74
2023-03-02T04:42:09.060Z,4.28
2023-03-02T04:43:11.541Z,4.19
2023-03-02T04:44:15.022Z,3.80
2023-03-02T04:45:18.246Z,4.04
2023-03-02T04:46:24.123Z,4.69
2023-03-02T04:47:26.428Z,3.92
2023-03-02T04:48:29.322Z,4.24
2023-03-02T04:49:32.064Z,3.91
2023-03-02T04:50:34.487Z,4.43
2023-03-02T04:51:39.984Z,4.25
2023-03-02T04:52:44.261Z,4.07
2023-03-02T04:53:46.880Z,4.62
2023-03-02T04:54:49.512Z,4.71
2023-03-02T04:55:52.197Z,4.69
2023-03-02T04:56:55.259Z,4.42
2023-03-02T04:57:57.372Z,4.77
2023-03-02T04:59:01.307Z,4.88
2023-03-02T05:00:05.031Z,4.46
2023-03-02T05:01:08.626Z,5.04
2023-03-02T05:02:12.330Z,6.97
2023-03-02T05:03:14.312Z,6.49
2023-03-02T05:04:17.749Z,5.63
2023-03-02T05:05:24.143Z,7.53
2023-03-02T05:06:26.365Z,10.44
2023-03-02T05:07:28.388Z,13.59
2023-03-02T05:08:31.502Z,9.73
2023-03-02T05:09:33.659Z,8.04
2023-03-02T05:10:36.172Z,13.58
2023-03-02T05:11:38.778Z,7.42
2023-03-02T05:12:41.275Z,5.46
2023-03-02T05:13:43.154Z,4.95
2023-03-02T05:14:45.857Z,5.45
2023-03-02T05:15:47.887Z,7.17
2023-03-02T05:16:50.592Z,6.34
2023-03-02T05:17:52.819Z,6.50
2023-03-02T05:18:55.687Z,7.30
2023-03-02T05:19:57.573Z,8.62
2023-03-02T05:20:59.928Z,9.47
2023-03-02T05:22:01.971Z,7.88
2023-03-02T05:23:06.927Z,7.53
2023-03-02T05:24:10.070Z,6.54
2023-03-02T05:25:12.454Z,6.60
2023-03-02T05:26:15.699Z,5.43
2023-03-02T05:27:17.736Z,5.29
2023-03-02T05:28:21.873Z,5.21
2023-03-02T05:29:23.777Z,5.22
2023-03-02T05:30:26.392Z,5.49
2023-03-02T05:31:35.375Z,8.31
2023-03-02T05:32:38.223Z,12.09
2023-03-02T05:33:40.700Z,11.41
2023-03-02T05:34:42.599Z,13.00
2023-03-02T05:35:46.041Z,11.96
2023-03-02T05:36:48.313Z,8.31
2023-03-02T05:37:50.246Z,8.04
2023-03-02T05:38:52.329Z,7.61
2023-03-02T05:39:54.208Z,6.38
2023-03-02T05:40:56.894Z,6.03
2023-03-02T05:41:58.873Z,5.58
2023-03-02T05:43:01.365Z,5.54
2023-03-02T05:44:04.977Z,8.10
2023-03-02T05:45:10.753Z,8.29
2023-03-02T05:46:13.526Z,8.34
2023-03-02T05:47:15.714Z,7.66
2023-03-02T05:48:17.921Z,6.84
2023-03-02T05:49:19.789Z,6.36
2023-03-02T05:50:22.479Z,6.55
2023-03-02T05:51:24.472Z,5.32
2023-03-02T05:52:26.376Z,4.95
2023-03-02T05:53:29.744Z,4.87
2023-03-02T05:54:31.681Z,5.71
2023-03-02T05:55:33.641Z,5.26
2023-03-02T05:56:35.924Z,6.01
2023-03-02T05:57:38.518Z,6.33
2023-03-02T05:58:40.426Z,5.85
2023-03-02T05:59:42.638Z,5.32
2023-03-02T06:00:45.835Z,6.38
2023-03-02T06:01:47.782Z,5.87
2023-03-02T06:02:50.047Z,6.45
2023-03-02T06:03:52.834Z,5.62
2023-03-02T06:04:54.718Z,5.63
2023-03-02T06:05:57.247Z,5.53
2023-03-02T06:06:59.447Z,4.96
2023-03-02T06:08:02.595Z,5.13
2023-03-02T06:09:04.480Z,5.34
2023-03-02T06:10:10.015Z,5.51
2023-03-02T06:11:12.379Z,6.07
2023-03-02T06:12:14.658Z,6.72
2023-03-02T06:13:17.084Z,6.37
2023-03-02T06:14:18.973Z,5.89
2023-03-02T06:15:21.111Z,5.03
2023-03-02T06:16:23.190Z,5.83
2023-03-02T06:17:26.118Z,6.31
2023-03-02T06:18:28.176Z,6.09
2023-03-02T06:19:30.033Z,5.89
2023-03-02T06:20:32.048Z,6.09
2023-03-02T06:21:33.972Z,5.60
2023-03-02T06:22:40.805Z,6.64
2023-03-02T06:23:42.744Z,7.48
2023-03-02T06:24:44.746Z,5.39
2023-03-02T06:25:46.748Z,8.43
2023-03-02T06:26:48.838Z,7.05
2023-03-02T06:27:51.426Z,7.40
2023-03-02T06:28:54.087Z,9.42
2023-03-02T06:29:56.179Z,8.42
2023-03-02T06:30:58.156Z,7.77
2023-03-02T06:32:00.514Z,7.41
2023-03-02T06:33:02.816Z,6.33
2023-03-02T06:34:04.793Z,6.39
2023-03-02T06:35:09.368Z,6.25
2023-03-02T06:36:12.100Z,5.52
2023-03-02T06:37:14.135Z,4.94
2023-03-02T06:38:17.427Z,6.41
2023-03-02T06:39:19.404Z,6.13
2023-03-02T06:40:22.501Z,5.44
2023-03-02T06:41:25.411Z,5.89
2023-03-02T06:42:27.706Z,6.04
2023-03-02T06:43:29.690Z,5.56
2023-03-02T06:44:32.895Z,6.11
2023-03-02T06:45:35.100Z,6.49
2023-03-02T06:46:39.141Z,6.24
2023-03-02T06:47:41.206Z,5.65
2023-03-02T06:48:43.871Z,6.25
2023-03-02T06:49:46.347Z,6.01
2023-03-02T06:50:48.432Z,6.10
2023-03-02T06:51:50.379Z,5.79
2023-03-02T06:52:52.285Z,8.11
2023-03-02T06:53:54.767Z,6.33
2023-03-02T06:54:57.058Z,7.12
2023-03-02T06:55:59.135Z,8.21
2023-03-02T06:57:02.159Z,5.72
2023-03-02T06:58:04.409Z,5.42
2023-03-02T06:59:06.286Z,5.78
2023-03-02T07:00:11.069Z,5.33
2023-03-02T07:01:13.295Z,5.86
2023-03-02T07:02:15.257Z,4.94
2023-03-02T07:03:17.304Z,6.30
2023-03-02T07:04:19.346Z,5.73
2023-03-02T07:05:22.993Z,6.31
2023-03-02T07:06:25.159Z,5.62
2023-03-02T07:07:27.264Z,6.05
2023-03-02T07:08:29.655Z,5.79
2023-03-02T07:09:33.254Z,5.75
2023-03-02T07:10:36.960Z,6.28
2023-03-02T07:11:39.465Z,6.31
2023-03-02T07:12:43.177Z,6.45
2023-03-02T07:13:45.148Z,6.37
2023-03-02T07:14:47.035Z,5.75
2023-03-02T07:15:49.031Z,5.35
2023-03-02T07:16:52.454Z,5.77
2023-03-02T07:17:54.735Z,6.01
2023-03-02T07:18:56.728Z,5.36
2023-03-02T07:19:58.651Z,5.35
2023-03-02T07:21:01.214Z,4.76
2023-03-02T07:22:03.626Z,6.03
2023-03-02T07:23:06.221Z,6.09
2023-03-02T07:24:08.675Z,5.39
2023-03-02T07:25:11.775Z,5.49
2023-03-02T07:26:14.174Z,4.36
2023-03-02T07:27:17.078Z,4.31
2023-03-02T07:28:21.168Z,5.14
2023-03-02T07:29:23.132Z,5.64
2023-03-02T07:30:25.194Z,5.03
2023-03-02T07:31:28.298Z,5.25
2023-03-02T07:32:32.283Z,5.41
2023-03-02T07:33:35.843Z,5.18
2023-03-02T07:34:41.178Z,4.96
2023-03-02T07:35:43.542Z,4.64
2023-03-02T07:36:45.653Z,5.53
2023-03-02T07:37:47.533Z,5.43
2023-03-02T07:38:50.150Z,4.90
2023-03-02T07:39:52.015Z,5.09
2023-03-02T07:40:54.114Z,4.70
2023-03-02T07:42:00.827Z,4.52
2023-03-02T07:43:02.753Z,4.64
2023-03-02T07:44:04.647Z,4.63
2023-03-02T07:45:07.120Z,4.71
2023-03-02T07:46:09.152Z,4.85
2023-03-02T07:47:11.274Z,5.49
2023-03-02T07:48:13.291Z,6.51
2023-03-02T07:49:15.164Z,5.33
2023-03-02T07:50:18.671Z,4.41
2023-03-02T07:51:20.843Z,6.95
2023-03-02T07:52:23.077Z,4.79
2023-03-02T07:53:25.414Z,6.59
2023-03-02T07:54:27.594Z,4.67
2023-03-02T07:55:29.784Z,4.27
2023-03-02T07:56:33.315Z,4.20
2023-03-02T07:57:35.582Z,4.37
2023-03-02T07:58:38.093Z,4.72
2023-03-02T07:59:40.062Z,4.51
2023-03-02T08:00:42.802Z,3.66
2023-03-02T08:01:44.808Z,4.62
2023-03-02T08:02:47.244Z,4.59
2023-03-02T08:03:50.393Z,5.11
2023-03-02T08:04:52.391Z,4.51
2023-03-02T08:05:55.015Z,4.57
2023-03-02T08:06:56.990Z,3.85
2023-03-02T08:07:58.859Z,4.45
2023-03-02T08:09:04.346Z,4.32
2023-03-02T08:10:08.508Z,4.68
2023-03-02T08:11:16.463Z,3.54
2023-03-02T08:12:18.399Z,4.74
2023-03-02T08:13:20.322Z,4.83
2023-03-02T08:14:22.382Z,4.23
2023-03-02T08:15:24.992Z,4.67
2023-03-02T08:16:29.291Z,5.15
2023-03-02T08:17:31.880Z,4.58
2023-03-02T08:18:34.751Z,3.95
2023-03-02T08:19:37.386Z,4.49
2023-03-02T08:20:39.359Z,4.79
2023-03-02T08:21:41.388Z,5.45
2023-03-02T08:22:44.310Z,4.53
2023-03-02T08:23:46.668Z,3.83
2023-03-02T08:24:49.698Z,4.77
2023-03-02T08:25:54.078Z,5.03
2023-03-02T08:27:01.552Z,4.29
2023-03-02T08:28:04.402Z,3.84
2023-03-02T08:29:07.261Z,4.73
2023-03-02T08:30:12.542Z,4.36
2023-03-02T08:31:15.097Z,4.76
2023-03-02T08:32:17.560Z,5.01
2023-03-02T08:33:19.562Z,3.85
2023-03-02T08:34:21.411Z,4.43
2023-03-02T08:35:23.397Z,6.55
2023-03-02T08:36:25.806Z,5.22
2023-03-02T08:37:28.077Z,5.27
2023-03-02T08:38:31.741Z,4.60
2023-03-02T08:39:33.861Z,4.04
2023-03-02T08:40:35.861Z,4.40
2023-03-02T08:41:38.292Z,6.05
2023-03-02T08:42:42.344Z,3.59
2023-03-02T08:43:46.852Z,3.64
2023-03-02T08:44:48.825Z,3.23
2023-03-02T08:45:52.895Z,4.15
2023-03-02T08:46:55.396Z,3.64
2023-03-02T08:47:57.396Z,3.72
2023-03-02T08:48:59.385Z,4.38
2023-03-02T08:50:01.587Z,4.10
2023-03-02T08:51:07.329Z,5.02
2023-03-02T08:52:09.307Z,3.84
2023-03-02T08:53:11.355Z,4.33
2023-03-02T08:54:13.247Z,3.93
2023-03-02T08:55:16.453Z,3.63
2023-03-02T08:56:25.997Z,4.02
2023-03-02T08:57:28.060Z,5.26
2023-03-02T08:58:29.948Z,4.89
2023-03-02T08:59:31.870Z,4.56
2023-03-02T09:00:34.043Z,4.02
2023-03-02T09:01:37.710Z,4.71
2023-03-02T09:02:40.451Z,4.57
2023-03-02T09:03:42.574Z,3.76
2023-03-02T09:04:46.209Z,4.32
2023-03-02T09:05:48.350Z,4.68
2023-03-02T09:06:50.410Z,3.33
2023-03-02T09:07:53.078Z,3.30
2023-03-02T09:08:56.457Z,3.60
2023-03-02T09:09:58.389Z,3.46
2023-03-02T09:11:01.006Z,3.75
2023-03-02T09:12:03.916Z,5.97
2023-03-02T09:13:08.586Z,5.32
2023-03-02T09:14:12.799Z,4.08
2023-03-02T09:15:16.841Z,4.19
2023-03-02T09:16:19.094Z,3.85
2023-03-02T09:17:21.016Z,4.43
2023-03-02T09:18:23.052Z,4.13
2023-03-02T09:19:25.903Z,3.78
2023-03-02T09:20:28.097Z,4.74
2023-03-02T09:21:30.097Z,4.03
2023-03-02T09:22:32.176Z,4.36
2023-03-02T09:23:34.374Z,3.70
2023-03-02T09:24:36.556Z,3.75
2023-03-02T09:25:38.423Z,4.10
2023-03-02T09:26:42.181Z,4.91
2023-03-02T09:27:46.648Z,4.27
2023-03-02T09:28:48.953Z,3.96
2023-03-02T09:29:51.002Z,5.21
2023-03-02T09:30:56.836Z,5.99
2023-03-02T09:31:58.858Z,4.30
2023-03-02T09:33:00.985Z,3.47
2023-03-02T09:34:04.551Z,4.25
2023-03-02T09:35:07.504Z,4.26
2023-03-02T09:36:12.354Z,3.91
2023-03-02T09:37:15.284Z,4.18
2023-03-02T09:38:18.457Z,4.36
2023-03-02T09:39:21.412Z,4.09
2023-03-02T09:40:27.021Z,4.28
2023-03-02T09:41:49.569Z,3.92
2023-03-02T09:43:01.358Z,4.01
2023-03-02T09:44:33.328Z,3.71
2023-03-02T09:46:00.124Z,3.92
2023-03-02T09:47:35.223Z,4.33
2023-03-02T09:48:40.080Z,3.86
2023-03-02T09:49:50.425Z,4.26
2023-03-02T09:51:05.340Z,4.11
2023-03-02T09:52:11.058Z,5.12
2023-03-02T09:53:23.307Z,4.71
2023-03-02T09:54:25.795Z,3.93
2023-03-02T09:55:31.450Z,4.20
2023-03-02T10:00:20.410Z,3.45
2023-03-02T10:02:45.832Z,3.93
2023-03-02T10:03:51.807Z,4.03
2023-03-02T10:04:57.411Z,4.52
2023-03-02T10:06:00.019Z,4.21
2023-03-02T10:07:14.834Z,4.06
2023-03-02T10:08:23.112Z,4.35
2023-03-02T10:09:25.672Z,3.79
2023-03-02T10:10:45.738Z,3.68
2023-03-02T10:13:32.389Z,3.59
2023-03-02T10:14:41.025Z,4.01
2023-03-02T10:15:56.087Z,4.38
2023-03-02T10:17:11.102Z,3.24
2023-03-02T10:18:16.802Z,4.50
2023-03-02T10:21:59.000Z,4.39
2023-03-02T10:24:36.075Z,4.77
2023-03-02T10:25:45.480Z,3.72
2023-03-02T10:27:03.239Z,4.25
2023-03-02T10:28:21.348Z,4.50
2023-03-02T10:29:44.836Z,4.34
2023-03-02T10:33:16.499Z,4.48
2023-03-02T10:34:21.174Z,4.02
2023-03-02T10:35:25.312Z,4.06
2023-03-02T10:36:30.995Z,4.28
2023-03-02T10:37:32.998Z,4.51
2023-03-02T10:38:35.271Z,4.37
2023-03-02T10:39:37.256Z,4.07
2023-03-02T10:40:43.046Z,4.75
2023-03-02T10:41:52.171Z,3.97
2023-03-02T10:42:56.320Z,3.81
2023-03-02T10:44:14.354Z,3.88
2023-03-02T10:45:28.793Z,4.28
2023-03-02T10:46:45.465Z,4.01
2023-03-02T10:47:48.024Z,3.87
2023-03-02T10:48:57.143Z,3.67
2023-03-02T10:49:59.336Z,3.69
2023-03-02T10:51:01.538Z,3.67
2023-03-02T10:52:12.728Z,3.96
2023-03-02T10:53:18.386Z,4.23
2023-03-02T10:54:20.437Z,3.58
2023-03-02T10:55:23.478Z,3.77
2023-03-02T10:56:26.100Z,4.59
2023-03-02T10:57:41.465Z,3.93
2023-03-02T10:58:44.332Z,3.81
2023-03-02T10:59:47.142Z,3.28
2023-03-02T11:01:07.530Z,4.53
2023-03-02T11:02:19.561Z,3.67
2023-03-02T11:03:23.454Z,3.83
2023-03-02T11:04:25.892Z,3.86
2023-03-02T11:05:34.245Z,4.49
2023-03-02T11:06:38.572Z,4.31
2023-03-02T11:07:44.248Z,3.28
2023-03-02T11:08:48.046Z,4.21
2023-03-02T11:10:01.580Z,3.88
2023-03-02T11:11:04.372Z,3.54
2023-03-02T11:13:28.390Z,4.09
2023-03-02T11:14:30.354Z,4.03
2023-03-02T11:15:36.024Z,3.33
2023-03-02T11:16:38.211Z,3.88
2023-03-02T11:17:42.419Z,4.16
2023-03-02T11:18:53.670Z,3.71
2023-03-02T11:19:56.022Z,4.34
2023-03-02T11:21:20.971Z,6.01
2023-03-02T11:24:09.289Z,5.02
2023-03-02T11:25:14.990Z,4.91
2023-03-02T11:26:26.460Z,4.14
2023-03-02T11:28:39.219Z,4.45
2023-03-02T11:29:54.033Z,4.75
2023-03-02T11:30:58.543Z,4.84
2023-03-02T11:32:07.452Z,5.58
2023-03-02T11:33:25.147Z,5.08
2023-03-02T11:34:36.927Z,4.26
2023-03-02T11:35:49.116Z,4.86
2023-03-02T11:37:01.537Z,4.64
2023-03-02T11:38:10.260Z,5.58
2023-03-02T11:39:16.101Z,4.81
2023-03-02T11:40:42.700Z,5.12
2023-03-02T11:41:45.095Z,4.45
2023-03-02T11:42:48.439Z,5.51
2023-03-02T11:43:53.420Z,5.21
2023-03-02T11:44:57.591Z,4.48
2023-03-02T11:46:05.052Z,5.41
2023-03-02T11:47:10.175Z,4.86
2023-03-02T11:48:21.658Z,4.86
2023-03-02T11:50:27.981Z,4.54
2023-03-02T11:51:47.085Z,4.77
2023-03-02T11:52:58.780Z,4.73
2023-03-02T11:54:07.552Z,4.11
2023-03-02T11:55:22.296Z,4.13
2023-03-02T11:56:26.135Z,4.12
2023-03-02T11:57:34.839Z,4.04
2023-03-02T11:58:38.478Z,4.21
2023-03-02T11:59:41.563Z,3.87
2023-03-02T12:00:44.497Z,4.64
2023-03-02T12:01:50.556Z,5.25
2023-03-02T12:03:01.587Z,4.32
2023-03-02T12:04:27.432Z,3.69
2023-03-02T12:05:36.019Z,4.08
2023-03-02T12:06:42.239Z,4.16
2023-03-02T12:07:46.666Z,4.10
2023-03-02T12:08:52.006Z,4.11
2023-03-02T12:10:06.267Z,4.57
2023-03-02T12:11:17.723Z,4.93
2023-03-02T12:13:36.645Z,5.20
2023-03-02T12:14:41.175Z,4.41
2023-03-02T12:15:49.071Z,4.76
2023-03-02T12:16:55.083Z,4.38
2023-03-02T12:17:57.998Z,4.10
2023-03-02T12:19:16.318Z,4.21
2023-03-02T12:20:27.326Z,4.39
2023-03-02T12:21:33.006Z,4.83
2023-03-02T12:22:36.182Z,4.41
2023-03-02T12:23:45.517Z,3.76
2023-03-02T12:24:51.237Z,3.74
2023-03-02T12:26:06.258Z,4.06
2023-03-02T12:27:21.379Z,3.58
2023-03-02T12:28:32.988Z,3.91
2023-03-02T12:29:40.881Z,4.23
2023-03-02T12:30:43.132Z,4.56
2023-03-02T12:31:47.443Z,5.03
2023-03-02T12:33:20.568Z,5.22
2023-03-02T12:34:41.187Z,4.63
2023-03-02T12:35:45.024Z,3.80
2023-03-02T12:36:48.695Z,4.00
2023-03-02T12:37:54.375Z,3.39
2023-03-02T12:41:43.829Z,3.53
2023-03-02T12:43:01.326Z,4.48
2023-03-02T12:44:22.527Z,4.26
2023-03-02T12:45:31.377Z,3.44
2023-03-02T12:46:37.162Z,3.93
2023-03-02T12:47:43.302Z,4.16
2023-03-02T12:49:19.405Z,3.68
2023-03-02T12:50:25.256Z,3.84
2023-03-02T12:51:31.277Z,3.17
2023-03-02T12:52:35.790Z,3.63
2023-03-02T12:53:37.946Z,4.43
2023-03-02T12:54:40.625Z,3.79
2023-03-02T12:55:42.705Z,4.21
2023-03-02T12:56:45.920Z,3.76
2023-03-02T12:57:50.864Z,3.71
2023-03-02T12:58:53.837Z,4.07
2023-03-02T12:59:58.860Z,3.86
2023-03-02T13:01:03.262Z,3.57
2023-03-02T13:02:24.269Z,3.79
2023-03-02T13:03:28.599Z,4.38
2023-03-02T13:04:30.632Z,4.22
2023-03-02T13:05:35.391Z,3.60
2023-03-02T13:06:38.932Z,3.42
2023-03-02T13:07:53.479Z,4.19
2023-03-02T13:08:57.529Z,4.08
2023-03-02T13:10:02.115Z,3.56
2023-03-02T13:11:04.891Z,4.15
2023-03-02T13:12:10.595Z,3.38
2023-03-02T13:13:25.296Z,3.98
2023-03-02T13:14:29.042Z,3.87
2023-03-02T13:15:31.103Z,3.89
2023-03-02T13:16:34.292Z,4.38
2023-03-02T13:17:36.579Z,4.72
2023-03-02T13:18:39.408Z,4.13
2023-03-02T13:19:41.774Z,4.75
2023-03-02T13:20:44.362Z,4.66
2023-03-02T13:21:46.606Z,4.13
2023-03-02T13:22:49.355Z,3.71
2023-03-02T13:23:51.282Z,3.81
2023-03-02T13:25:05.688Z,4.09
2023-03-02T13:26:12.580Z,3.28
2023-03-02T13:27:20.967Z,3.96
2023-03-02T13:28:38.963Z,3.78
2023-03-02T13:29:41.218Z,3.59
2023-03-02T13:30:43.386Z,3.55
2023-03-02T13:31:46.341Z,3.56
2023-03-02T13:32:49.741Z,4.54
2023-03-02T13:33:54.418Z,3.82
2023-03-02T13:34:59.025Z,3.62
2023-03-02T13:36:02.498Z,4.10
2023-03-02T13:37:08.223Z,4.37
2023-03-02T13:38:19.327Z,4.02
2023-03-02T13:39:24.448Z,4.08
2023-03-02T13:40:33.202Z,4.28
2023-03-02T13:41:36.864Z,5.11
2023-03-02T13:42:40.521Z,4.34
2023-03-02T13:43:42.553Z,6.16
2023-03-02T13:44:44.853Z,4.05
2023-03-02T13:45:56.286Z,4.03
2023-03-02T13:46:59.538Z,3.97
2023-03-02T13:48:13.361Z,4.64
2023-03-02T13:49:27.669Z,5.49
2023-03-02T13:50:32.693Z,5.04
2023-03-02T13:51:38.699Z,4.49
2023-03-02T13:52:40.658Z,4.35
2023-03-02T13:53:46.484Z,4.11
2023-03-02T13:54:48.522Z,3.86
2023-03-02T13:55:52.515Z,3.92
2023-03-02T13:57:00.759Z,3.85
2023-03-02T13:58:03.917Z,3.96
2023-03-02T13:59:14.488Z,3.79
2023-03-02T14:01:30.630Z,3.93
2023-03-02T14:02:32.683Z,4.05
2023-03-02T14:03:34.558Z,4.43
2023-03-02T14:04:36.533Z,4.40
2023-03-02T14:05:38.678Z,4.43
2023-03-02T14:06:41.407Z,3.91
2023-03-02T14:07:43.688Z,4.16
2023-03-02T14:08:46.246Z,3.55
2023-03-02T14:09:48.679Z,4.23
2023-03-02T14:12:27.132Z,4.14
2023-03-02T14:13:38.726Z,3.57
2023-03-02T14:14:40.954Z,3.48
2023-03-02T14:15:50.519Z,3.97
2023-03-02T14:16:52.900Z,4.67
2023-03-02T14:17:55.527Z,3.78
2023-03-02T14:18:57.513Z,2.83
2023-03-02T14:19:59.470Z,3.95
2023-03-02T14:21:02.146Z,2.64
2023-03-02T14:22:04.212Z,2.83
2023-03-02T14:23:08.184Z,2.65
2023-03-02T14:24:12.314Z,2.34
2023-03-02T14:25:14.876Z,2.38
2023-03-02T14:26:26.515Z,2.55
2023-03-02T14:27:29.768Z,2.69
2023-03-02T14:28:33.668Z,2.33
2023-03-02T14:29:35.592Z,3.53
2023-03-02T14:30:39.946Z,2.91
2023-03-02T14:31:41.849Z,3.34
2023-03-02T14:32:44.159Z,5.06
2023-03-02T14:33:47.042Z,3.89
2023-03-02T14:34:49.122Z,3.19
2023-03-02T14:35:53.772Z,2.96
2023-03-02T14:36:59.217Z,2.66
2023-03-02T14:38:01.407Z,2.94
2023-03-02T14:39:06.661Z,3.19
2023-03-02T14:40:14.670Z,2.89
2023-03-02T14:41:20.404Z,2.78
2023-03-02T14:42:23.809Z,3.23
2023-03-02T14:43:25.726Z,3.36
2023-03-02T14:44:27.993Z,2.75
2023-03-02T14:45:30.888Z,2.91
2023-03-02T14:46:33.273Z,3.54
2023-03-02T14:47:35.201Z,3.27